sensor_id;sensor_type;location;lat;lon;timestamp;P1;durP1;ratioP1;P2;durP2;ratioP2
44214;SDS011;29884;47.450;19.124;2023-12-20T00:01:19;19.00;;;7.00;;
44214;SDS011;29884;47.450;19.124;2023-12-20T00:03:45;17.42;;;6.28;;
44214;SDS011;29884;47.450;19.124;2023-12-20T00:06:10;16.48;;;6.07;;
44214;SDS011;29884;47.450;19.124;2023-12-20T00:08:36;15.27;;;5.95;;
44214;SDS011;29884;47.450;19.124;2023-12-20T00:11:01;16.58;;;6.38;;
44214;SDS011;29884;47.450;19.124;2023-12-20T00:13:27;16.27;;;5.97;;
44214;SDS011;29884;47.450;19.124;2023-12-20T00:15:53;18.88;;;7.20;;
44214;SDS011;29884;47.450;19.124;2023-12-20T00:18:18;20.67;;;6.75;;
44214;SDS011;29884;47.450;19.124;2023-12-20T00:20:44;19.80;;;6.88;;
44214;SDS011;29884;47.450;19.124;2023-12-20T00:23:09;16.90;;;5.85;;
44214;SDS011;29884;47.450;19.124;2023-12-20T00:25:35;20.27;;;7.18;;
44214;SDS011;29884;47.450;19.124;2023-12-20T00:28:01;19.40;;;7.35;;
44214;SDS011;29884;47.450;19.124;2023-12-20T00:30:27;18.13;;;6.93;;
44214;SDS011;29884;47.450;19.124;2023-12-20T00:32:53;19.45;;;6.35;;
44214;SDS011;29884;47.450;19.124;2023-12-20T00:35:18;19.75;;;7.75;;
44214;SDS011;29884;47.450;19.124;2023-12-20T00:37:44;20.60;;;7.15;;
44214;SDS011;29884;47.450;19.124;2023-12-20T00:40:10;24.08;;;7.63;;
44214;SDS011;29884;47.450;19.124;2023-12-20T00:42:36;20.48;;;7.50;;
44214;SDS011;29884;47.450;19.124;2023-12-20T00:45:02;22.75;;;7.25;;
44214;SDS011;29884;47.450;19.124;2023-12-20T00:47:29;20.23;;;7.88;;
44214;SDS011;29884;47.450;19.124;2023-12-20T00:49:55;19.55;;;8.05;;
44214;SDS011;29884;47.450;19.124;2023-12-20T00:52:21;18.15;;;7.38;;
44214;SDS011;29884;47.450;19.124;2023-12-20T00:54:47;23.25;;;8.75;;
44214;SDS011;29884;47.450;19.124;2023-12-20T00:57:13;24.73;;;7.82;;
44214;SDS011;29884;47.450;19.124;2023-12-20T00:59:40;22.60;;;8.02;;
44214;SDS011;29884;47.450;19.124;2023-12-20T01:02:06;19.55;;;7.95;;
44214;SDS011;29884;47.450;19.124;2023-12-20T01:04:31;26.33;;;9.30;;
44214;SDS011;29884;47.450;19.124;2023-12-20T01:06:57;25.17;;;8.25;;
44214;SDS011;29884;47.450;19.124;2023-12-20T01:09:22;22.40;;;7.95;;
44214;SDS011;29884;47.450;19.124;2023-12-20T01:11:51;25.60;;;7.82;;
44214;SDS011;29884;47.450;19.124;2023-12-20T01:14:17;23.77;;;8.73;;
44214;SDS011;29884;47.450;19.124;2023-12-20T01:16:43;25.38;;;8.15;;
44214;SDS011;29884;47.450;19.124;2023-12-20T01:19:08;22.52;;;7.85;;
44214;SDS011;29884;47.450;19.124;2023-12-20T01:21:34;22.55;;;9.00;;
44214;SDS011;29884;47.450;19.124;2023-12-20T01:23:59;20.90;;;8.00;;
44214;SDS011;29884;47.450;19.124;2023-12-20T01:26:25;25.13;;;8.38;;
44214;SDS011;29884;47.450;19.124;2023-12-20T01:28:50;28.25;;;8.57;;
44214;SDS011;29884;47.450;19.124;2023-12-20T01:31:16;20.77;;;7.78;;
44214;SDS011;29884;47.450;19.124;2023-12-20T01:33:42;22.52;;;7.75;;
44214;SDS011;29884;47.450;19.124;2023-12-20T01:36:07;16.20;;;7.22;;
44214;SDS011;29884;47.450;19.124;2023-12-20T01:38:34;23.90;;;8.13;;
44214;SDS011;29884;47.450;19.124;2023-12-20T01:40:59;25.05;;;8.00;;
44214;SDS011;29884;47.450;19.124;2023-12-20T01:43:25;21.98;;;8.18;;
44214;SDS011;29884;47.450;19.124;2023-12-20T01:45:51;26.27;;;8.93;;
44214;SDS011;29884;47.450;19.124;2023-12-20T01:48:18;25.02;;;9.05;;
44214;SDS011;29884;47.450;19.124;2023-12-20T01:50:45;25.73;;;8.57;;
44214;SDS011;29884;47.450;19.124;2023-12-20T01:53:12;25.48;;;9.68;;
44214;SDS011;29884;47.450;19.124;2023-12-20T01:55:39;22.83;;;8.40;;
44214;SDS011;29884;47.450;19.124;2023-12-20T01:58:06;24.02;;;9.05;;
44214;SDS011;29884;47.450;19.124;2023-12-20T02:00:32;22.85;;;8.00;;
44214;SDS011;29884;47.450;19.124;2023-12-20T02:03:00;22.00;;;8.65;;
44214;SDS011;29884;47.450;19.124;2023-12-20T02:05:27;26.20;;;8.85;;
44214;SDS011;29884;47.450;19.124;2023-12-20T02:07:53;23.60;;;8.98;;
44214;SDS011;29884;47.450;19.124;2023-12-20T02:10:19;33.03;;;10.27;;
44214;SDS011;29884;47.450;19.124;2023-12-20T02:12:45;31.67;;;10.05;;
44214;SDS011;29884;47.450;19.124;2023-12-20T02:15:11;27.10;;;10.23;;
44214;SDS011;29884;47.450;19.124;2023-12-20T02:17:37;27.30;;;9.75;;
44214;SDS011;29884;47.450;19.124;2023-12-20T02:20:04;27.55;;;10.55;;
44214;SDS011;29884;47.450;19.124;2023-12-20T02:22:32;24.67;;;9.90;;
44214;SDS011;29884;47.450;19.124;2023-12-20T02:24:58;29.98;;;9.38;;
44214;SDS011;29884;47.450;19.124;2023-12-20T02:27:23;27.23;;;9.80;;
44214;SDS011;29884;47.450;19.124;2023-12-20T02:29:49;30.38;;;10.88;;
44214;SDS011;29884;47.450;19.124;2023-12-20T02:32:16;27.73;;;11.02;;
44214;SDS011;29884;47.450;19.124;2023-12-20T02:34:46;31.63;;;11.13;;
44214;SDS011;29884;47.450;19.124;2023-12-20T02:37:13;28.92;;;11.60;;
44214;SDS011;29884;47.450;19.124;2023-12-20T02:39:39;28.30;;;11.00;;
44214;SDS011;29884;47.450;19.124;2023-12-20T02:42:05;31.50;;;11.25;;
44214;SDS011;29884;47.450;19.124;2023-12-20T02:44:30;31.42;;;11.90;;
44214;SDS011;29884;47.450;19.124;2023-12-20T02:46:56;26.88;;;10.85;;
44214;SDS011;29884;47.450;19.124;2023-12-20T02:49:21;28.02;;;11.68;;
44214;SDS011;29884;47.450;19.124;2023-12-20T02:51:47;34.22;;;11.98;;
44214;SDS011;29884;47.450;19.124;2023-12-20T02:54:13;27.85;;;12.13;;
44214;SDS011;29884;47.450;19.124;2023-12-20T02:56:39;26.67;;;11.48;;
44214;SDS011;29884;47.450;19.124;2023-12-20T02:59:04;37.10;;;12.68;;
44214;SDS011;29884;47.450;19.124;2023-12-20T03:01:34;26.65;;;11.20;;
44214;SDS011;29884;47.450;19.124;2023-12-20T03:04:00;34.08;;;13.02;;
44214;SDS011;29884;47.450;19.124;2023-12-20T03:06:26;26.45;;;12.05;;
44214;SDS011;29884;47.450;19.124;2023-12-20T03:08:51;33.53;;;13.20;;
44214;SDS011;29884;47.450;19.124;2023-12-20T03:11:17;26.52;;;11.20;;
44214;SDS011;29884;47.450;19.124;2023-12-20T03:13:43;33.83;;;12.45;;
44214;SDS011;29884;47.450;19.124;2023-12-20T03:16:09;30.25;;;11.77;;
44214;SDS011;29884;47.450;19.124;2023-12-20T03:18:36;41.38;;;12.70;;
44214;SDS011;29884;47.450;19.124;2023-12-20T03:21:01;28.48;;;11.82;;
44214;SDS011;29884;47.450;19.124;2023-12-20T03:23:29;29.17;;;11.85;;
44214;SDS011;29884;47.450;19.124;2023-12-20T03:25:55;30.23;;;12.23;;
44214;SDS011;29884;47.450;19.124;2023-12-20T03:28:21;36.13;;;12.93;;
44214;SDS011;29884;47.450;19.124;2023-12-20T03:30:48;32.83;;;12.18;;
44214;SDS011;29884;47.450;19.124;2023-12-20T03:33:13;30.80;;;12.35;;
44214;SDS011;29884;47.450;19.124;2023-12-20T03:35:39;33.80;;;13.30;;
44214;SDS011;29884;47.450;19.124;2023-12-20T03:38:05;27.33;;;11.73;;
44214;SDS011;29884;47.450;19.124;2023-12-20T03:40:30;35.95;;;12.30;;
44214;SDS011;29884;47.450;19.124;2023-12-20T03:42:56;32.33;;;11.45;;
44214;SDS011;29884;47.450;19.124;2023-12-20T03:45:21;28.67;;;11.23;;
44214;SDS011;29884;47.450;19.124;2023-12-20T03:47:47;22.67;;;9.77;;
44214;SDS011;29884;47.450;19.124;2023-12-20T03:50:13;31.75;;;11.85;;
44214;SDS011;29884;47.450;19.124;2023-12-20T03:52:39;31.13;;;11.02;;
44214;SDS011;29884;47.450;19.124;2023-12-20T03:55:05;29.48;;;10.80;;
44214;SDS011;29884;47.450;19.124;2023-12-20T03:57:31;31.48;;;10.10;;
44214;SDS011;29884;47.450;19.124;2023-12-20T03:59:56;26.85;;;11.18;;
44214;SDS011;29884;47.450;19.124;2023-12-20T04:02:22;30.17;;;11.05;;
44214;SDS011;29884;47.450;19.124;2023-12-20T04:04:48;24.77;;;10.02;;
44214;SDS011;29884;47.450;19.124;2023-12-20T04:07:13;27.00;;;9.88;;
44214;SDS011;29884;47.450;19.124;2023-12-20T04:09:40;27.58;;;10.15;;
44214;SDS011;29884;47.450;19.124;2023-12-20T04:12:06;32.60;;;10.55;;
44214;SDS011;29884;47.450;19.124;2023-12-20T04:14:32;29.40;;;11.00;;
44214;SDS011;29884;47.450;19.124;2023-12-20T04:16:57;32.47;;;11.05;;
44214;SDS011;29884;47.450;19.124;2023-12-20T04:19:23;31.10;;;10.90;;
44214;SDS011;29884;47.450;19.124;2023-12-20T04:21:49;26.40;;;9.48;;
44214;SDS011;29884;47.450;19.124;2023-12-20T04:24:14;33.75;;;10.52;;
44214;SDS011;29884;47.450;19.124;2023-12-20T04:26:40;31.75;;;10.02;;
44214;SDS011;29884;47.450;19.124;2023-12-20T04:29:06;31.55;;;11.45;;
44214;SDS011;29884;47.450;19.124;2023-12-20T04:31:31;27.48;;;10.70;;
44214;SDS011;29884;47.450;19.124;2023-12-20T04:33:57;28.45;;;10.05;;
44214;SDS011;29884;47.450;19.124;2023-12-20T04:36:22;29.45;;;10.77;;
44214;SDS011;29884;47.450;19.124;2023-12-20T04:38:50;29.67;;;10.65;;
44214;SDS011;29884;47.450;19.124;2023-12-20T04:41:15;25.90;;;9.20;;
44214;SDS011;29884;47.450;19.124;2023-12-20T04:43:43;31.27;;;11.15;;
44214;SDS011;29884;47.450;19.124;2023-12-20T04:46:09;26.83;;;11.88;;
44214;SDS011;29884;47.450;19.124;2023-12-20T04:48:34;32.55;;;10.70;;
44214;SDS011;29884;47.450;19.124;2023-12-20T04:51:00;27.23;;;10.73;;
44214;SDS011;29884;47.450;19.124;2023-12-20T04:53:26;31.50;;;10.80;;
44214;SDS011;29884;47.450;19.124;2023-12-20T04:55:52;27.30;;;11.18;;
44214;SDS011;29884;47.450;19.124;2023-12-20T04:58:18;26.67;;;10.50;;
44214;SDS011;29884;47.450;19.124;2023-12-20T05:00:44;28.33;;;11.13;;
44214;SDS011;29884;47.450;19.124;2023-12-20T05:03:09;30.30;;;11.23;;
44214;SDS011;29884;47.450;19.124;2023-12-20T05:05:35;31.45;;;11.60;;
44214;SDS011;29884;47.450;19.124;2023-12-20T05:08:01;32.47;;;11.32;;
44214;SDS011;29884;47.450;19.124;2023-12-20T05:10:27;30.88;;;11.48;;
44214;SDS011;29884;47.450;19.124;2023-12-20T05:12:53;26.13;;;10.75;;
44214;SDS011;29884;47.450;19.124;2023-12-20T05:15:18;28.73;;;11.00;;
44214;SDS011;29884;47.450;19.124;2023-12-20T05:17:44;27.90;;;10.50;;
44214;SDS011;29884;47.450;19.124;2023-12-20T05:20:10;30.67;;;11.30;;
44214;SDS011;29884;47.450;19.124;2023-12-20T05:22:35;30.60;;;10.38;;
44214;SDS011;29884;47.450;19.124;2023-12-20T05:25:01;32.20;;;12.05;;
44214;SDS011;29884;47.450;19.124;2023-12-20T05:27:27;29.70;;;11.65;;
44214;SDS011;29884;47.450;19.124;2023-12-20T05:29:52;30.77;;;11.93;;
44214;SDS011;29884;47.450;19.124;2023-12-20T05:32:22;32.80;;;11.63;;
44214;SDS011;29884;47.450;19.124;2023-12-20T05:34:48;30.70;;;11.57;;
44214;SDS011;29884;47.450;19.124;2023-12-20T05:37:13;28.33;;;11.02;;
44214;SDS011;29884;47.450;19.124;2023-12-20T05:39:39;29.33;;;11.68;;
44214;SDS011;29884;47.450;19.124;2023-12-20T05:42:05;31.55;;;11.95;;
44214;SDS011;29884;47.450;19.124;2023-12-20T05:44:30;28.58;;;11.32;;
44214;SDS011;29884;47.450;19.124;2023-12-20T05:46:56;28.60;;;10.82;;
44214;SDS011;29884;47.450;19.124;2023-12-20T05:49:22;33.83;;;12.43;;
44214;SDS011;29884;47.450;19.124;2023-12-20T05:51:47;36.95;;;12.75;;
44214;SDS011;29884;47.450;19.124;2023-12-20T05:54:13;33.95;;;12.43;;
44214;SDS011;29884;47.450;19.124;2023-12-20T05:56:38;31.75;;;12.40;;
44214;SDS011;29884;47.450;19.124;2023-12-20T05:59:04;28.10;;;11.40;;
44214;SDS011;29884;47.450;19.124;2023-12-20T06:01:30;31.23;;;11.98;;
44214;SDS011;29884;47.450;19.124;2023-12-20T06:03:55;29.90;;;10.52;;
44214;SDS011;29884;47.450;19.124;2023-12-20T06:06:21;36.03;;;12.50;;
44214;SDS011;29884;47.450;19.124;2023-12-20T06:08:46;32.95;;;12.00;;
44214;SDS011;29884;47.450;19.124;2023-12-20T06:11:12;35.60;;;13.10;;
44214;SDS011;29884;47.450;19.124;2023-12-20T06:13:38;30.23;;;10.75;;
44214;SDS011;29884;47.450;19.124;2023-12-20T06:16:05;36.50;;;12.95;;
44214;SDS011;29884;47.450;19.124;2023-12-20T06:18:32;32.35;;;11.65;;
44214;SDS011;29884;47.450;19.124;2023-12-20T06:20:57;32.58;;;11.32;;
44214;SDS011;29884;47.450;19.124;2023-12-20T06:23:23;28.70;;;12.13;;
44214;SDS011;29884;47.450;19.124;2023-12-20T06:25:49;30.83;;;11.23;;
44214;SDS011;29884;47.450;19.124;2023-12-20T06:28:14;30.55;;;11.15;;
44214;SDS011;29884;47.450;19.124;2023-12-20T06:30:40;29.45;;;11.23;;
44214;SDS011;29884;47.450;19.124;2023-12-20T06:33:06;29.77;;;12.15;;
44214;SDS011;29884;47.450;19.124;2023-12-20T06:35:36;29.10;;;10.65;;
44214;SDS011;29884;47.450;19.124;2023-12-20T06:38:02;28.58;;;12.32;;
44214;SDS011;29884;47.450;19.124;2023-12-20T06:40:27;28.35;;;11.13;;
44214;SDS011;29884;47.450;19.124;2023-12-20T06:42:53;34.45;;;11.63;;
44214;SDS011;29884;47.450;19.124;2023-12-20T06:45:19;28.10;;;10.77;;
44214;SDS011;29884;47.450;19.124;2023-12-20T06:47:45;37.53;;;12.48;;
44214;SDS011;29884;47.450;19.124;2023-12-20T06:50:10;34.63;;;12.27;;
44214;SDS011;29884;47.450;19.124;2023-12-20T06:52:36;28.92;;;11.93;;
44214;SDS011;29884;47.450;19.124;2023-12-20T06:55:01;34.17;;;11.57;;
44214;SDS011;29884;47.450;19.124;2023-12-20T06:57:27;35.10;;;12.63;;
44214;SDS011;29884;47.450;19.124;2023-12-20T06:59:53;33.00;;;12.52;;
44214;SDS011;29884;47.450;19.124;2023-12-20T07:02:18;36.92;;;12.65;;
44214;SDS011;29884;47.450;19.124;2023-12-20T07:04:44;36.92;;;11.75;;
44214;SDS011;29884;47.450;19.124;2023-12-20T07:07:10;32.00;;;11.25;;
44214;SDS011;29884;47.450;19.124;2023-12-20T07:09:35;29.50;;;11.73;;
44214;SDS011;29884;47.450;19.124;2023-12-20T07:12:01;30.85;;;10.80;;
44214;SDS011;29884;47.450;19.124;2023-12-20T07:14:27;27.00;;;10.43;;
44214;SDS011;29884;47.450;19.124;2023-12-20T07:16:53;29.63;;;10.88;;
44214;SDS011;29884;47.450;19.124;2023-12-20T07:19:18;34.92;;;10.25;;
44214;SDS011;29884;47.450;19.124;2023-12-20T07:21:44;35.85;;;10.75;;
44214;SDS011;29884;47.450;19.124;2023-12-20T07:24:10;27.38;;;10.80;;
44214;SDS011;29884;47.450;19.124;2023-12-20T07:26:36;28.05;;;9.98;;
44214;SDS011;29884;47.450;19.124;2023-12-20T07:29:15;33.45;;;10.90;;
44214;SDS011;29884;47.450;19.124;2023-12-20T07:31:41;31.08;;;10.50;;
44214;SDS011;29884;47.450;19.124;2023-12-20T07:34:06;33.17;;;12.15;;
44214;SDS011;29884;47.450;19.124;2023-12-20T07:36:32;35.47;;;11.30;;
44214;SDS011;29884;47.450;19.124;2023-12-20T07:38:58;40.55;;;11.10;;
44214;SDS011;29884;47.450;19.124;2023-12-20T07:41:23;34.75;;;12.25;;
44214;SDS011;29884;47.450;19.124;2023-12-20T07:43:49;39.97;;;13.07;;
44214;SDS011;29884;47.450;19.124;2023-12-20T07:46:14;36.47;;;13.50;;
44214;SDS011;29884;47.450;19.124;2023-12-20T07:48:40;45.25;;;13.07;;
44214;SDS011;29884;47.450;19.124;2023-12-20T07:51:06;44.53;;;13.95;;
44214;SDS011;29884;47.450;19.124;2023-12-20T07:53:33;40.20;;;12.93;;
44214;SDS011;29884;47.450;19.124;2023-12-20T07:55:59;45.13;;;12.93;;
44214;SDS011;29884;47.450;19.124;2023-12-20T07:58:24;40.90;;;14.23;;
44214;SDS011;29884;47.450;19.124;2023-12-20T08:00:50;44.60;;;13.55;;
44214;SDS011;29884;47.450;19.124;2023-12-20T08:03:16;40.50;;;13.75;;
44214;SDS011;29884;47.450;19.124;2023-12-20T08:05:41;40.40;;;13.93;;
44214;SDS011;29884;47.450;19.124;2023-12-20T08:08:07;47.90;;;14.13;;
44214;SDS011;29884;47.450;19.124;2023-12-20T08:10:33;48.30;;;15.27;;
44214;SDS011;29884;47.450;19.124;2023-12-20T08:12:58;43.60;;;15.35;;
44214;SDS011;29884;47.450;19.124;2023-12-20T08:15:24;47.97;;;15.30;;
44214;SDS011;29884;47.450;19.124;2023-12-20T08:17:49;39.78;;;13.98;;
44214;SDS011;29884;47.450;19.124;2023-12-20T08:20:18;42.97;;;14.73;;
44214;SDS011;29884;47.450;19.124;2023-12-20T08:22:44;58.25;;;16.00;;
44214;SDS011;29884;47.450;19.124;2023-12-20T08:25:09;48.90;;;17.70;;
44214;SDS011;29884;47.450;19.124;2023-12-20T08:27:39;49.83;;;16.77;;
44214;SDS011;29884;47.450;19.124;2023-12-20T08:30:05;42.92;;;14.65;;
44214;SDS011;29884;47.450;19.124;2023-12-20T08:32:32;43.25;;;15.80;;
44214;SDS011;29884;47.450;19.124;2023-12-20T08:34:58;45.70;;;15.30;;
44214;SDS011;29884;47.450;19.124;2023-12-20T08:37:24;48.33;;;15.48;;
44214;SDS011;29884;47.450;19.124;2023-12-20T08:39:49;48.28;;;14.93;;
44214;SDS011;29884;47.450;19.124;2023-12-20T08:42:15;41.65;;;14.07;;
44214;SDS011;29884;47.450;19.124;2023-12-20T08:44:40;50.10;;;15.45;;
44214;SDS011;29884;47.450;19.124;2023-12-20T08:47:06;45.85;;;15.20;;
44214;SDS011;29884;47.450;19.124;2023-12-20T08:49:32;43.65;;;16.48;;
44214;SDS011;29884;47.450;19.124;2023-12-20T08:51:57;47.35;;;16.63;;
44214;SDS011;29884;47.450;19.124;2023-12-20T08:54:23;43.72;;;15.00;;
44214;SDS011;29884;47.450;19.124;2023-12-20T08:56:49;42.20;;;15.23;;
44214;SDS011;29884;47.450;19.124;2023-12-20T08:59:15;41.55;;;14.88;;
44214;SDS011;29884;47.450;19.124;2023-12-20T09:01:40;40.85;;;14.07;;
44214;SDS011;29884;47.450;19.124;2023-12-20T09:04:06;47.60;;;15.75;;
44214;SDS011;29884;47.450;19.124;2023-12-20T09:06:31;52.33;;;16.42;;
44214;SDS011;29884;47.450;19.124;2023-12-20T09:08:57;47.35;;;16.00;;
44214;SDS011;29884;47.450;19.124;2023-12-20T09:11:22;41.85;;;15.27;;
44214;SDS011;29884;47.450;19.124;2023-12-20T09:13:48;44.67;;;14.95;;
44214;SDS011;29884;47.450;19.124;2023-12-20T09:16:14;43.17;;;15.50;;
44214;SDS011;29884;47.450;19.124;2023-12-20T09:18:40;44.85;;;14.40;;
44214;SDS011;29884;47.450;19.124;2023-12-20T09:21:06;49.90;;;16.30;;
44214;SDS011;29884;47.450;19.124;2023-12-20T09:23:32;44.33;;;15.30;;
44214;SDS011;29884;47.450;19.124;2023-12-20T09:25:58;45.40;;;15.52;;
44214;SDS011;29884;47.450;19.124;2023-12-20T09:28:23;50.08;;;17.30;;
44214;SDS011;29884;47.450;19.124;2023-12-20T09:30:49;47.92;;;16.48;;
44214;SDS011;29884;47.450;19.124;2023-12-20T09:33:15;52.00;;;17.98;;
44214;SDS011;29884;47.450;19.124;2023-12-20T09:35:41;55.85;;;18.55;;
44214;SDS011;29884;47.450;19.124;2023-12-20T09:38:07;53.28;;;16.88;;
44214;SDS011;29884;47.450;19.124;2023-12-20T09:40:33;59.38;;;18.05;;
44214;SDS011;29884;47.450;19.124;2023-12-20T09:45:33;62.93;;;19.07;;
44214;SDS011;29884;47.450;19.124;2023-12-20T09:47:59;55.33;;;17.08;;
44214;SDS011;29884;47.450;19.124;2023-12-20T09:50:26;59.15;;;20.40;;
44214;SDS011;29884;47.450;19.124;2023-12-20T09:52:53;52.00;;;18.42;;
44214;SDS011;29884;47.450;19.124;2023-12-20T09:55:21;52.25;;;17.55;;
44214;SDS011;29884;47.450;19.124;2023-12-20T09:57:47;57.47;;;18.00;;
44214;SDS011;29884;47.450;19.124;2023-12-20T10:00:14;55.58;;;18.30;;
44214;SDS011;29884;47.450;19.124;2023-12-20T10:02:42;53.80;;;18.08;;
44214;SDS011;29884;47.450;19.124;2023-12-20T10:05:19;58.15;;;18.02;;
44214;SDS011;29884;47.450;19.124;2023-12-20T10:07:54;56.05;;;19.20;;
44214;SDS011;29884;47.450;19.124;2023-12-20T10:10:19;57.08;;;18.65;;
44214;SDS011;29884;47.450;19.124;2023-12-20T10:13:03;48.58;;;17.92;;
44214;SDS011;29884;47.450;19.124;2023-12-20T10:15:33;50.67;;;16.35;;
44214;SDS011;29884;47.450;19.124;2023-12-20T10:18:00;49.70;;;17.35;;
44214;SDS011;29884;47.450;19.124;2023-12-20T10:20:27;47.92;;;18.38;;
44214;SDS011;29884;47.450;19.124;2023-12-20T10:22:54;53.47;;;17.83;;
44214;SDS011;29884;47.450;19.124;2023-12-20T10:25:23;52.25;;;18.27;;
44214;SDS011;29884;47.450;19.124;2023-12-20T10:27:50;51.47;;;18.50;;
44214;SDS011;29884;47.450;19.124;2023-12-20T10:30:33;58.97;;;19.52;;
44214;SDS011;29884;47.450;19.124;2023-12-20T10:32:59;61.28;;;18.85;;
44214;SDS011;29884;47.450;19.124;2023-12-20T10:35:24;49.58;;;18.45;;
44214;SDS011;29884;47.450;19.124;2023-12-20T10:37:51;52.80;;;18.33;;
44214;SDS011;29884;47.450;19.124;2023-12-20T10:40:21;58.40;;;18.95;;
44214;SDS011;29884;47.450;19.124;2023-12-20T10:42:47;55.15;;;20.00;;
44214;SDS011;29884;47.450;19.124;2023-12-20T10:45:15;50.88;;;18.77;;
44214;SDS011;29884;47.450;19.124;2023-12-20T10:47:42;51.75;;;19.45;;
44214;SDS011;29884;47.450;19.124;2023-12-20T10:50:11;58.28;;;19.75;;
44214;SDS011;29884;47.450;19.124;2023-12-20T10:52:37;51.90;;;18.85;;
44214;SDS011;29884;47.450;19.124;2023-12-20T10:55:03;59.97;;;19.42;;
44214;SDS011;29884;47.450;19.124;2023-12-20T10:57:30;52.58;;;19.98;;
44214;SDS011;29884;47.450;19.124;2023-12-20T10:59:56;65.65;;;21.45;;
44214;SDS011;29884;47.450;19.124;2023-12-20T11:02:32;65.13;;;21.25;;
44214;SDS011;29884;47.450;19.124;2023-12-20T11:07:43;54.53;;;20.27;;
44214;SDS011;29884;47.450;19.124;2023-12-20T11:10:19;57.25;;;20.60;;
44214;SDS011;29884;47.450;19.124;2023-12-20T11:12:55;56.70;;;19.90;;
44214;SDS011;29884;47.450;19.124;2023-12-20T11:15:26;53.40;;;20.67;;
44214;SDS011;29884;47.450;19.124;2023-12-20T11:17:56;57.58;;;22.42;;
44214;SDS011;29884;47.450;19.124;2023-12-20T11:20:24;60.13;;;22.40;;
44214;SDS011;29884;47.450;19.124;2023-12-20T11:23:00;61.05;;;24.20;;
44214;SDS011;29884;47.450;19.124;2023-12-20T11:25:25;65.88;;;24.73;;
44214;SDS011;29884;47.450;19.124;2023-12-20T11:28:10;68.50;;;25.83;;
44214;SDS011;29884;47.450;19.124;2023-12-20T11:33:37;67.45;;;26.17;;
44214;SDS011;29884;47.450;19.124;2023-12-20T11:36:03;71.20;;;24.45;;
44214;SDS011;29884;47.450;19.124;2023-12-20T11:38:37;61.20;;;23.23;;
44214;SDS011;29884;47.450;19.124;2023-12-20T11:41:05;62.67;;;23.55;;
44214;SDS011;29884;47.450;19.124;2023-12-20T11:46:02;65.70;;;24.10;;
44214;SDS011;29884;47.450;19.124;2023-12-20T11:48:31;52.03;;;21.67;;
44214;SDS011;29884;47.450;19.124;2023-12-20T11:50:58;54.15;;;22.20;;
44214;SDS011;29884;47.450;19.124;2023-12-20T11:53:24;50.25;;;21.17;;
44214;SDS011;29884;47.450;19.124;2023-12-20T11:55:50;53.83;;;21.63;;
44214;SDS011;29884;47.450;19.124;2023-12-20T11:58:16;53.83;;;22.48;;
44214;SDS011;29884;47.450;19.124;2023-12-20T12:00:42;56.45;;;21.75;;
44214;SDS011;29884;47.450;19.124;2023-12-20T12:03:08;53.28;;;22.38;;
44214;SDS011;29884;47.450;19.124;2023-12-20T12:05:34;58.47;;;22.98;;
44214;SDS011;29884;47.450;19.124;2023-12-20T12:08:01;56.25;;;21.48;;
44214;SDS011;29884;47.450;19.124;2023-12-20T12:10:27;59.78;;;23.45;;
44214;SDS011;29884;47.450;19.124;2023-12-20T12:12:54;56.38;;;22.52;;
44214;SDS011;29884;47.450;19.124;2023-12-20T12:15:19;61.97;;;23.08;;
44214;SDS011;29884;47.450;19.124;2023-12-20T12:17:52;57.75;;;23.05;;
44214;SDS011;29884;47.450;19.124;2023-12-20T12:20:21;53.20;;;22.83;;
44214;SDS011;29884;47.450;19.124;2023-12-20T12:22:58;62.50;;;24.08;;
44214;SDS011;29884;47.450;19.124;2023-12-20T12:25:32;61.85;;;24.30;;
44214;SDS011;29884;47.450;19.124;2023-12-20T12:28:00;54.78;;;22.38;;
44214;SDS011;29884;47.450;19.124;2023-12-20T12:30:26;56.38;;;22.38;;
44214;SDS011;29884;47.450;19.124;2023-12-20T12:32:52;60.78;;;23.52;;
44214;SDS011;29884;47.450;19.124;2023-12-20T12:35:18;60.50;;;24.20;;
44214;SDS011;29884;47.450;19.124;2023-12-20T12:37:44;26.60;;;11.38;;
44214;SDS011;29884;47.450;19.124;2023-12-20T12:40:10;21.40;;;7.45;;
44214;SDS011;29884;47.450;19.124;2023-12-20T12:42:38;11.05;;;5.50;;
44214;SDS011;29884;47.450;19.124;2023-12-20T12:45:04;12.02;;;4.85;;
44214;SDS011;29884;47.450;19.124;2023-12-20T12:47:30;10.00;;;4.38;;
44214;SDS011;29884;47.450;19.124;2023-12-20T12:49:56;8.15;;;4.15;;
44214;SDS011;29884;47.450;19.124;2023-12-20T12:52:22;7.13;;;3.53;;
44214;SDS011;29884;47.450;19.124;2023-12-20T12:54:47;7.38;;;3.65;;
44214;SDS011;29884;47.450;19.124;2023-12-20T12:57:14;6.60;;;2.95;;
44214;SDS011;29884;47.450;19.124;2023-12-20T12:59:41;3.92;;;2.15;;
44214;SDS011;29884;47.450;19.124;2023-12-20T13:02:08;6.38;;;2.65;;
44214;SDS011;29884;47.450;19.124;2023-12-20T13:04:33;4.88;;;2.30;;
44214;SDS011;29884;47.450;19.124;2023-12-20T13:06:59;4.60;;;2.55;;
44214;SDS011;29884;47.450;19.124;2023-12-20T13:09:25;5.47;;;2.38;;
44214;SDS011;29884;47.450;19.124;2023-12-20T13:11:50;5.35;;;2.83;;
44214;SDS011;29884;47.450;19.124;2023-12-20T13:14:16;5.20;;;2.67;;
44214;SDS011;29884;47.450;19.124;2023-12-20T13:16:41;3.75;;;2.03;;
44214;SDS011;29884;47.450;19.124;2023-12-20T13:19:07;7.65;;;2.85;;
44214;SDS011;29884;47.450;19.124;2023-12-20T13:21:33;6.22;;;2.60;;
44214;SDS011;29884;47.450;19.124;2023-12-20T13:23:59;5.70;;;2.80;;
44214;SDS011;29884;47.450;19.124;2023-12-20T13:26:24;5.93;;;2.88;;
44214;SDS011;29884;47.450;19.124;2023-12-20T13:28:50;8.23;;;2.92;;
44214;SDS011;29884;47.450;19.124;2023-12-20T13:31:16;8.30;;;3.10;;
44214;SDS011;29884;47.450;19.124;2023-12-20T13:33:41;5.72;;;3.05;;
44214;SDS011;29884;47.450;19.124;2023-12-20T13:36:07;7.25;;;3.60;;
44214;SDS011;29884;47.450;19.124;2023-12-20T13:38:33;6.28;;;3.03;;
44214;SDS011;29884;47.450;19.124;2023-12-20T13:40:59;5.10;;;2.70;;
44214;SDS011;29884;47.450;19.124;2023-12-20T13:43:24;9.15;;;2.65;;
44214;SDS011;29884;47.450;19.124;2023-12-20T13:45:50;6.00;;;2.88;;
44214;SDS011;29884;47.450;19.124;2023-12-20T13:48:16;7.05;;;3.28;;
44214;SDS011;29884;47.450;19.124;2023-12-20T13:50:42;6.00;;;3.63;;
44214;SDS011;29884;47.450;19.124;2023-12-20T13:53:07;6.40;;;3.38;;
44214;SDS011;29884;47.450;19.124;2023-12-20T13:55:33;6.90;;;2.92;;
44214;SDS011;29884;47.450;19.124;2023-12-20T13:57:58;6.72;;;3.00;;
44214;SDS011;29884;47.450;19.124;2023-12-20T14:00:24;6.82;;;3.28;;
44214;SDS011;29884;47.450;19.124;2023-12-20T14:02:50;8.10;;;3.80;;
44214;SDS011;29884;47.450;19.124;2023-12-20T14:05:16;5.50;;;3.08;;
44214;SDS011;29884;47.450;19.124;2023-12-20T14:07:42;6.13;;;3.17;;
44214;SDS011;29884;47.450;19.124;2023-12-20T14:10:09;5.85;;;2.95;;
44214;SDS011;29884;47.450;19.124;2023-12-20T14:12:38;5.50;;;2.92;;
44214;SDS011;29884;47.450;19.124;2023-12-20T14:15:05;5.95;;;2.58;;
44214;SDS011;29884;47.450;19.124;2023-12-20T14:17:35;4.80;;;2.65;;
44214;SDS011;29884;47.450;19.124;2023-12-20T14:20:05;5.45;;;2.92;;